sensor_id;sensor_type;location;lat;lon;timestamp;P1;durP1;ratioP1;P2;durP2;ratioP2
7729;SDS011;3908;52.310;7.230;2024-01-25T00:02:45;21.90;;;17.37;;
7729;SDS011;3908;52.310;7.230;2024-01-25T00:05:35;20.27;;;18.00;;
7729;SDS011;3908;52.310;7.230;2024-01-25T00:08:22;24.10;;;18.77;;
7729;SDS011;3908;52.310;7.230;2024-01-25T00:11:13;29.83;;;17.87;;
7729;SDS011;3908;52.310;7.230;2024-01-25T00:14:05;27.90;;;17.17;;
7729;SDS011;3908;52.310;7.230;2024-01-25T00:16:52;25.83;;;17.20;;
7729;SDS011;3908;52.310;7.230;2024-01-25T00:19:39;24.67;;;14.53;;
7729;SDS011;3908;52.310;7.230;2024-01-25T00:22:26;25.00;;;16.10;;
7729;SDS011;3908;52.310;7.230;2024-01-25T00:25:18;25.43;;;16.87;;
7729;SDS011;3908;52.310;7.230;2024-01-25T00:28:05;23.30;;;15.77;;
7729;SDS011;3908;52.310;7.230;2024-01-25T00:30:58;25.60;;;14.93;;
7729;SDS011;3908;52.310;7.230;2024-01-25T00:33:45;29.17;;;15.07;;
7729;SDS011;3908;52.310;7.230;2024-01-25T00:36:33;23.03;;;14.43;;
7729;SDS011;3908;52.310;7.230;2024-01-25T00:39:20;25.13;;;14.73;;
7729;SDS011;3908;52.310;7.230;2024-01-25T00:42:08;18.20;;;14.07;;
7729;SDS011;3908;52.310;7.230;2024-01-25T00:45:00;26.60;;;14.07;;
7729;SDS011;3908;52.310;7.230;2024-01-25T00:47:49;28.73;;;14.87;;
7729;SDS011;3908;52.310;7.230;2024-01-25T00:50:37;22.37;;;15.07;;
7729;SDS011;3908;52.310;7.230;2024-01-25T00:53:25;27.00;;;15.50;;
7729;SDS011;3908;52.310;7.230;2024-01-25T00:56:13;28.47;;;14.53;;
7729;SDS011;3908;52.310;7.230;2024-01-25T00:59:00;25.30;;;15.60;;
7729;SDS011;3908;52.310;7.230;2024-01-25T01:01:48;20.60;;;16.30;;
7729;SDS011;3908;52.310;7.230;2024-01-25T01:04:40;17.53;;;15.80;;
7729;SDS011;3908;52.310;7.230;2024-01-25T01:07:28;27.87;;;21.03;;
7729;SDS011;3908;52.310;7.230;2024-01-25T01:10:18;22.70;;;20.37;;
7729;SDS011;3908;52.310;7.230;2024-01-25T01:13:06;16.40;;;14.73;;
7729;SDS011;3908;52.310;7.230;2024-01-25T01:15:56;24.33;;;16.60;;
7729;SDS011;3908;52.310;7.230;2024-01-25T01:18:43;20.53;;;16.30;;
7729;SDS011;3908;52.310;7.230;2024-01-25T01:21:32;25.03;;;14.33;;
7729;SDS011;3908;52.310;7.230;2024-01-25T01:24:23;23.93;;;16.73;;
7729;SDS011;3908;52.310;7.230;2024-01-25T01:27:10;23.20;;;15.77;;
7729;SDS011;3908;52.310;7.230;2024-01-25T01:30:00;19.20;;;14.80;;
7729;SDS011;3908;52.310;7.230;2024-01-25T01:32:47;20.27;;;12.10;;
7729;SDS011;3908;52.310;7.230;2024-01-25T01:35:34;17.97;;;12.40;;
7729;SDS011;3908;52.310;7.230;2024-01-25T01:38:23;19.87;;;11.80;;
7729;SDS011;3908;52.310;7.230;2024-01-25T01:41:13;22.60;;;13.17;;
7729;SDS011;3908;52.310;7.230;2024-01-25T01:44:03;20.03;;;13.33;;
7729;SDS011;3908;52.310;7.230;2024-01-25T01:46:50;16.17;;;14.47;;
7729;SDS011;3908;52.310;7.230;2024-01-25T01:49:40;21.47;;;15.27;;
7729;SDS011;3908;52.310;7.230;2024-01-25T01:52:28;19.13;;;16.90;;
7729;SDS011;3908;52.310;7.230;2024-01-25T01:55:17;25.13;;;15.67;;
7729;SDS011;3908;52.310;7.230;2024-01-25T01:58:04;18.80;;;14.03;;
7729;SDS011;3908;52.310;7.230;2024-01-25T02:00:55;19.70;;;13.07;;
7729;SDS011;3908;52.310;7.230;2024-01-25T02:03:47;18.93;;;12.77;;
7729;SDS011;3908;52.310;7.230;2024-01-25T02:06:34;26.83;;;12.23;;
7729;SDS011;3908;52.310;7.230;2024-01-25T02:09:22;17.43;;;10.33;;
7729;SDS011;3908;52.310;7.230;2024-01-25T02:12:10;20.93;;;10.23;;
7729;SDS011;3908;52.310;7.230;2024-01-25T02:14:59;20.60;;;9.73;;
7729;SDS011;3908;52.310;7.230;2024-01-25T04:38:05;24.43;;;14.80;;
7729;SDS011;3908;52.310;7.230;2024-01-25T04:40:58;26.73;;;17.73;;
7729;SDS011;3908;52.310;7.230;2024-01-25T04:43:45;24.47;;;18.80;;
7729;SDS011;3908;52.310;7.230;2024-01-25T04:46:32;25.47;;;22.33;;
7729;SDS011;3908;52.310;7.230;2024-01-25T04:49:22;25.30;;;20.50;;
7729;SDS011;3908;52.310;7.230;2024-01-25T04:52:18;36.13;;;20.90;;
7729;SDS011;3908;52.310;7.230;2024-01-25T04:55:08;29.10;;;18.60;;
7729;SDS011;3908;52.310;7.230;2024-01-25T04:57:55;21.53;;;18.70;;
7729;SDS011;3908;52.310;7.230;2024-01-25T05:00:43;23.73;;;17.57;;
7729;SDS011;3908;52.310;7.230;2024-01-25T05:03:33;25.00;;;17.13;;
7729;SDS011;3908;52.310;7.230;2024-01-25T05:06:20;33.83;;;17.63;;
7729;SDS011;3908;52.310;7.230;2024-01-25T05:09:10;21.93;;;18.43;;
7729;SDS011;3908;52.310;7.230;2024-01-25T05:11:59;19.80;;;17.73;;
7729;SDS011;3908;52.310;7.230;2024-01-25T05:14:47;26.97;;;14.23;;
7729;SDS011;3908;52.310;7.230;2024-01-25T05:17:34;21.10;;;13.63;;
7729;SDS011;3908;52.310;7.230;2024-01-25T05:20:24;19.63;;;14.80;;
7729;SDS011;3908;52.310;7.230;2024-01-25T05:23:17;27.23;;;12.63;;
7729;SDS011;3908;52.310;7.230;2024-01-25T05:26:07;22.03;;;11.70;;
7729;SDS011;3908;52.310;7.230;2024-01-25T05:28:56;17.33;;;11.10;;
7729;SDS011;3908;52.310;7.230;2024-01-25T05:31:43;25.87;;;12.00;;
7729;SDS011;3908;52.310;7.230;2024-01-25T05:34:34;23.40;;;11.97;;
7729;SDS011;3908;52.310;7.230;2024-01-25T05:37:21;22.70;;;11.33;;
7729;SDS011;3908;52.310;7.230;2024-01-25T05:40:08;22.27;;;8.93;;
7729;SDS011;3908;52.310;7.230;2024-01-25T05:42:56;22.90;;;9.13;;
7729;SDS011;3908;52.310;7.230;2024-01-25T06:57:38;28.17;;;25.83;;
7729;SDS011;3908;52.310;7.230;2024-01-25T07:00:28;16.80;;;10.67;;
7729;SDS011;3908;52.310;7.230;2024-01-25T07:03:15;18.20;;;8.03;;
7729;SDS011;3908;52.310;7.230;2024-01-25T07:06:03;15.57;;;8.37;;
7729;SDS011;3908;52.310;7.230;2024-01-25T07:08:51;27.07;;;8.20;;
7729;SDS011;3908;52.310;7.230;2024-01-25T07:11:38;16.67;;;8.30;;
7729;SDS011;3908;52.310;7.230;2024-01-25T07:14:27;11.63;;;9.03;;
7729;SDS011;3908;52.310;7.230;2024-01-25T07:17:14;23.67;;;9.03;;
7729;SDS011;3908;52.310;7.230;2024-01-25T07:20:01;19.80;;;9.97;;
7729;SDS011;3908;52.310;7.230;2024-01-25T07:22:48;21.40;;;10.43;;
7729;SDS011;3908;52.310;7.230;2024-01-25T07:25:35;16.73;;;10.83;;
7729;SDS011;3908;52.310;7.230;2024-01-25T07:28:23;16.47;;;10.60;;
7729;SDS011;3908;52.310;7.230;2024-01-25T07:31:12;20.60;;;14.67;;
7729;SDS011;3908;52.310;7.230;2024-01-25T07:33:59;24.03;;;12.60;;
7729;SDS011;3908;52.310;7.230;2024-01-25T07:36:46;17.17;;;12.03;;
7729;SDS011;3908;52.310;7.230;2024-01-25T07:39:33;22.43;;;13.30;;
7729;SDS011;3908;52.310;7.230;2024-01-25T07:42:20;16.70;;;13.53;;
7729;SDS011;3908;52.310;7.230;2024-01-25T07:45:08;18.53;;;13.53;;
7729;SDS011;3908;52.310;7.230;2024-01-25T07:48:00;22.53;;;13.80;;
7729;SDS011;3908;52.310;7.230;2024-01-25T07:50:47;31.33;;;14.90;;
7729;SDS011;3908;52.310;7.230;2024-01-25T07:53:34;17.83;;;14.47;;
7729;SDS011;3908;52.310;7.230;2024-01-25T07:56:21;17.37;;;15.13;;
7729;SDS011;3908;52.310;7.230;2024-01-25T07:59:09;22.10;;;15.60;;
7729;SDS011;3908;52.310;7.230;2024-01-25T08:01:56;21.27;;;16.23;;
7729;SDS011;3908;52.310;7.230;2024-01-25T08:04:44;26.47;;;17.23;;
7729;SDS011;3908;52.310;7.230;2024-01-25T08:07:31;17.57;;;15.20;;
7729;SDS011;3908;52.310;7.230;2024-01-25T08:10:21;21.30;;;14.80;;
7729;SDS011;3908;52.310;7.230;2024-01-25T08:13:09;21.47;;;11.43;;
7729;SDS011;3908;52.310;7.230;2024-01-25T08:15:56;21.63;;;12.90;;
7729;SDS011;3908;52.310;7.230;2024-01-25T08:18:43;17.47;;;13.63;;
7729;SDS011;3908;52.310;7.230;2024-01-25T08:21:31;30.97;;;15.50;;
7729;SDS011;3908;52.310;7.230;2024-01-25T08:24:21;20.37;;;18.50;;
7729;SDS011;3908;52.310;7.230;2024-01-25T08:27:08;26.73;;;19.70;;
7729;SDS011;3908;52.310;7.230;2024-01-25T08:29:55;30.93;;;28.30;;
7729;SDS011;3908;52.310;7.230;2024-01-25T08:32:42;31.43;;;28.07;;
7729;SDS011;3908;52.310;7.230;2024-01-25T08:35:29;30.20;;;25.67;;
7729;SDS011;3908;52.310;7.230;2024-01-25T08:38:18;24.60;;;21.60;;
7729;SDS011;3908;52.310;7.230;2024-01-25T08:41:05;25.77;;;21.30;;
7729;SDS011;3908;52.310;7.230;2024-01-25T08:43:53;30.77;;;19.43;;
7729;SDS011;3908;52.310;7.230;2024-01-25T08:51:43;22.80;;;15.87;;
7729;SDS011;3908;52.310;7.230;2024-01-25T08:54:32;22.77;;;14.50;;
7729;SDS011;3908;52.310;7.230;2024-01-25T08:57:19;21.37;;;13.70;;
7729;SDS011;3908;52.310;7.230;2024-01-25T09:00:09;24.60;;;16.10;;
7729;SDS011;3908;52.310;7.230;2024-01-25T09:02:58;26.13;;;16.90;;
7729;SDS011;3908;52.310;7.230;2024-01-25T09:05:45;23.37;;;15.50;;
7729;SDS011;3908;52.310;7.230;2024-01-25T09:08:32;19.47;;;16.73;;
7729;SDS011;3908;52.310;7.230;2024-01-25T09:11:21;29.33;;;19.20;;
7729;SDS011;3908;52.310;7.230;2024-01-25T09:14:12;24.43;;;21.63;;
7729;SDS011;3908;52.310;7.230;2024-01-25T09:17:08;179.13;;;166.70;;
7729;SDS011;3908;52.310;7.230;2024-01-25T09:19:57;29.70;;;24.80;;
7729;SDS011;3908;52.310;7.230;2024-01-25T09:22:40;31.17;;;25.47;;
7729;SDS011;3908;52.310;7.230;2024-01-25T09:25:34;35.47;;;22.27;;
7729;SDS011;3908;52.310;7.230;2024-01-25T09:28:29;34.17;;;19.90;;
7729;SDS011;3908;52.310;7.230;2024-01-25T09:31:16;21.77;;;19.47;;
7729;SDS011;3908;52.310;7.230;2024-01-25T09:34:06;23.90;;;17.97;;
7729;SDS011;3908;52.310;7.230;2024-01-25T09:36:53;30.53;;;20.30;;
7729;SDS011;3908;52.310;7.230;2024-01-25T09:39:44;23.53;;;18.97;;
7729;SDS011;3908;52.310;7.230;2024-01-25T09:42:31;36.97;;;20.57;;
7729;SDS011;3908;52.310;7.230;2024-01-25T09:45:23;32.97;;;16.63;;
7729;SDS011;3908;52.310;7.230;2024-01-25T09:48:10;24.13;;;15.83;;
7729;SDS011;3908;52.310;7.230;2024-01-25T09:50:58;26.73;;;16.70;;
7729;SDS011;3908;52.310;7.230;2024-01-25T09:53:46;22.93;;;16.10;;
7729;SDS011;3908;52.310;7.230;2024-01-25T09:56:36;35.93;;;18.77;;
7729;SDS011;3908;52.310;7.230;2024-01-25T09:59:23;25.20;;;16.57;;
7729;SDS011;3908;52.310;7.230;2024-01-25T10:02:12;27.37;;;17.37;;
7729;SDS011;3908;52.310;7.230;2024-01-25T10:04:59;28.30;;;19.97;;
7729;SDS011;3908;52.310;7.230;2024-01-25T10:07:46;37.87;;;17.97;;
7729;SDS011;3908;52.310;7.230;2024-01-25T10:10:33;24.80;;;14.27;;
7729;SDS011;3908;52.310;7.230;2024-01-25T10:13:21;23.53;;;14.60;;
7729;SDS011;3908;52.310;7.230;2024-01-25T10:16:10;18.87;;;13.47;;
7729;SDS011;3908;52.310;7.230;2024-01-25T10:19:04;26.57;;;12.50;;
7729;SDS011;3908;52.310;7.230;2024-01-25T10:21:53;28.67;;;11.47;;
7729;SDS011;3908;52.310;7.230;2024-01-25T10:24:43;30.93;;;13.63;;
7729;SDS011;3908;52.310;7.230;2024-01-25T10:27:30;29.87;;;14.97;;
7729;SDS011;3908;52.310;7.230;2024-01-25T10:30:18;28.47;;;15.10;;
7729;SDS011;3908;52.310;7.230;2024-01-25T10:33:05;27.30;;;15.50;;
7729;SDS011;3908;52.310;7.230;2024-01-25T10:35:58;26.07;;;20.67;;
7729;SDS011;3908;52.310;7.230;2024-01-25T10:38:48;34.67;;;22.10;;
7729;SDS011;3908;52.310;7.230;2024-01-25T10:41:36;33.10;;;26.73;;
7729;SDS011;3908;52.310;7.230;2024-01-25T10:44:24;41.87;;;33.30;;
7729;SDS011;3908;52.310;7.230;2024-01-25T10:47:11;36.03;;;32.13;;
7729;SDS011;3908;52.310;7.230;2024-01-25T10:49:59;32.53;;;29.30;;
7729;SDS011;3908;52.310;7.230;2024-01-25T10:52:49;34.37;;;31.47;;
7729;SDS011;3908;52.310;7.230;2024-01-25T10:55:39;34.33;;;30.57;;
7729;SDS011;3908;52.310;7.230;2024-01-25T10:58:30;37.73;;;34.00;;
7729;SDS011;3908;52.310;7.230;2024-01-25T11:01:18;31.77;;;28.83;;
7729;SDS011;3908;52.310;7.230;2024-01-25T11:04:11;40.83;;;32.00;;
7729;SDS011;3908;52.310;7.230;2024-01-25T11:07:04;30.73;;;27.17;;
7729;SDS011;3908;52.310;7.230;2024-01-25T11:09:55;27.53;;;23.63;;
7729;SDS011;3908;52.310;7.230;2024-01-25T11:12:46;25.37;;;14.57;;
7729;SDS011;3908;52.310;7.230;2024-01-25T11:15:36;29.33;;;11.77;;
7729;SDS011;3908;52.310;7.230;2024-01-25T11:18:24;31.43;;;21.53;;
7729;SDS011;3908;52.310;7.230;2024-01-25T11:21:12;30.87;;;19.27;;
7729;SDS011;3908;52.310;7.230;2024-01-25T11:24:12;30.47;;;18.00;;
7729;SDS011;3908;52.310;7.230;2024-01-25T11:27:01;33.50;;;17.97;;
7729;SDS011;3908;52.310;7.230;2024-01-25T11:29:52;23.33;;;16.93;;
7729;SDS011;3908;52.310;7.230;2024-01-25T11:32:39;28.50;;;14.80;;
7729;SDS011;3908;52.310;7.230;2024-01-25T11:35:28;24.07;;;12.07;;
7729;SDS011;3908;52.310;7.230;2024-01-25T11:38:15;30.57;;;15.50;;
7729;SDS011;3908;52.310;7.230;2024-01-25T11:41:05;19.93;;;18.07;;
7729;SDS011;3908;52.310;7.230;2024-01-25T11:43:54;29.03;;;20.40;;
7729;SDS011;3908;52.310;7.230;2024-01-25T11:46:41;40.20;;;24.10;;
7729;SDS011;3908;52.310;7.230;2024-01-25T11:49:29;30.63;;;23.07;;
7729;SDS011;3908;52.310;7.230;2024-01-25T11:52:16;31.07;;;20.43;;
7729;SDS011;3908;52.310;7.230;2024-01-25T11:55:08;21.70;;;13.40;;
7729;SDS011;3908;52.310;7.230;2024-01-25T11:57:56;21.13;;;12.13;;
7729;SDS011;3908;52.310;7.230;2024-01-25T12:00:48;28.37;;;10.67;;
7729;SDS011;3908;52.310;7.230;2024-01-25T12:03:36;30.07;;;16.87;;
7729;SDS011;3908;52.310;7.230;2024-01-25T12:06:24;27.07;;;21.47;;
7729;SDS011;3908;52.310;7.230;2024-01-25T12:09:11;28.53;;;21.73;;
7729;SDS011;3908;52.310;7.230;2024-01-25T12:11:59;43.50;;;27.47;;
7729;SDS011;3908;52.310;7.230;2024-01-25T12:14:47;27.10;;;21.80;;
7729;SDS011;3908;52.310;7.230;2024-01-25T12:17:35;33.57;;;30.47;;
7729;SDS011;3908;52.310;7.230;2024-01-25T12:20:24;35.27;;;32.00;;
7729;SDS011;3908;52.310;7.230;2024-01-25T12:23:12;37.43;;;32.73;;
7729;SDS011;3908;52.310;7.230;2024-01-25T12:26:01;43.50;;;38.27;;
7729;SDS011;3908;52.310;7.230;2024-01-25T12:28:48;38.47;;;34.63;;
7729;SDS011;3908;52.310;7.230;2024-01-25T12:31:35;26.53;;;22.93;;
7729;SDS011;3908;52.310;7.230;2024-01-25T12:34:24;29.87;;;25.73;;
7729;SDS011;3908;52.310;7.230;2024-01-25T12:37:11;38.00;;;34.37;;
7729;SDS011;3908;52.310;7.230;2024-01-25T12:39:58;39.03;;;35.23;;
7729;SDS011;3908;52.310;7.230;2024-01-25T12:42:45;40.77;;;36.50;;
7729;SDS011;3908;52.310;7.230;2024-01-25T12:45:32;38.17;;;34.30;;
7729;SDS011;3908;52.310;7.230;2024-01-25T12:48:19;37.30;;;33.63;;
7729;SDS011;3908;52.310;7.230;2024-01-25T12:51:08;43.03;;;34.37;;
7729;SDS011;3908;52.310;7.230;2024-01-25T12:53:55;38.93;;;35.27;;
7729;SDS011;3908;52.310;7.230;2024-01-25T12:56:42;43.33;;;34.83;;
7729;SDS011;3908;52.310;7.230;2024-01-25T12:59:29;35.67;;;31.97;;
7729;SDS011;3908;52.310;7.230;2024-01-25T13:02:17;39.20;;;36.07;;
7729;SDS011;3908;52.310;7.230;2024-01-25T13:05:07;38.83;;;34.97;;
7729;SDS011;3908;52.310;7.230;2024-01-25T13:07:56;39.87;;;32.10;;
7729;SDS011;3908;52.310;7.230;2024-01-25T13:10:43;33.70;;;28.80;;
7729;SDS011;3908;52.310;7.230;2024-01-25T13:13:33;32.30;;;24.87;;
7729;SDS011;3908;52.310;7.230;2024-01-25T13:16:21;27.63;;;24.93;;
7729;SDS011;3908;52.310;7.230;2024-01-25T13:19:11;28.57;;;23.80;;
7729;SDS011;3908;52.310;7.230;2024-01-25T13:21:58;29.07;;;23.03;;
7729;SDS011;3908;52.310;7.230;2024-01-25T13:24:50;40.87;;;37.73;;
7729;SDS011;3908;52.310;7.230;2024-01-25T13:27:37;35.40;;;23.57;;
7729;SDS011;3908;52.310;7.230;2024-01-25T13:30:24;32.20;;;24.30;;
7729;SDS011;3908;52.310;7.230;2024-01-25T13:33:11;30.97;;;23.27;;
7729;SDS011;3908;52.310;7.230;2024-01-25T13:35:58;27.13;;;23.83;;
7729;SDS011;3908;52.310;7.230;2024-01-25T13:38:50;35.13;;;23.93;;
7729;SDS011;3908;52.310;7.230;2024-01-25T13:41:38;30.33;;;27.10;;
7729;SDS011;3908;52.310;7.230;2024-01-25T13:44:29;32.83;;;29.83;;
7729;SDS011;3908;52.310;7.230;2024-01-25T13:47:16;42.33;;;38.37;;
7729;SDS011;3908;52.310;7.230;2024-01-25T13:50:05;47.73;;;43.40;;
7729;SDS011;3908;52.310;7.230;2024-01-25T13:52:53;37.77;;;33.80;;
7729;SDS011;3908;52.310;7.230;2024-01-25T13:55:43;30.10;;;24.90;;
7729;SDS011;3908;52.310;7.230;2024-01-25T13:58:32;23.77;;;20.80;;
7729;SDS011;3908;52.310;7.230;2024-01-25T14:01:19;29.20;;;17.93;;
7729;SDS011;3908;52.310;7.230;2024-01-25T14:04:09;26.33;;;15.60;;
7729;SDS011;3908;52.310;7.230;2024-01-25T14:06:56;20.63;;;14.33;;
7729;SDS011;3908;52.310;7.230;2024-01-25T14:09:44;23.27;;;13.47;;
7729;SDS011;3908;52.310;7.230;2024-01-25T14:12:32;24.07;;;10.23;;
7729;SDS011;3908;52.310;7.230;2024-01-25T14:15:21;16.30;;;9.53;;
7729;SDS011;3908;52.310;7.230;2024-01-25T14:25:55;18.67;;;12.70;;
7729;SDS011;3908;52.310;7.230;2024-01-25T14:28:42;31.80;;;12.37;;
7729;SDS011;3908;52.310;7.230;2024-01-25T14:31:31;20.43;;;10.90;;
7729;SDS011;3908;52.310;7.230;2024-01-25T14:34:18;22.80;;;10.47;;
7729;SDS011;3908;52.310;7.230;2024-01-25T14:37:05;24.00;;;11.83;;
7729;SDS011;3908;52.310;7.230;2024-01-25T14:39:58;28.27;;;11.27;;
7729;SDS011;3908;52.310;7.230;2024-01-25T14:42:46;22.33;;;8.53;;
7729;SDS011;3908;52.310;7.230;2024-01-25T14:45:36;22.87;;;10.10;;
7729;SDS011;3908;52.310;7.230;2024-01-25T14:48:25;24.30;;;9.50;;
7729;SDS011;3908;52.310;7.230;2024-01-25T14:51:12;20.10;;;8.10;;
7729;SDS011;3908;52.310;7.230;2024-01-25T14:54:00;18.40;;;7.37;;
7729;SDS011;3908;52.310;7.230;2024-01-25T14:56:49;20.50;;;7.63;;
7729;SDS011;3908;52.310;7.230;2024-01-25T14:59:37;20.60;;;7.73;;
7729;SDS011;3908;52.310;7.230;2024-01-25T15:02:24;17.50;;;6.53;;
7729;SDS011;3908;52.310;7.230;2024-01-25T15:05:13;19.90;;;6.77;;
7729;SDS011;3908;52.310;7.230;2024-01-25T15:08:01;27.17;;;8.50;;
7729;SDS011;3908;52.310;7.230;2024-01-25T15:10:48;21.87;;;9.90;;
7729;SDS011;3908;52.310;7.230;2024-01-25T15:13:36;24.20;;;10.43;;
7729;SDS011;3908;52.310;7.230;2024-01-25T15:16:24;19.00;;;12.90;;
7729;SDS011;3908;52.310;7.230;2024-01-25T15:19:11;30.30;;;17.70;;
7729;SDS011;3908;52.310;7.230;2024-01-25T15:22:00;33.77;;;26.23;;
7729;SDS011;3908;52.310;7.230;2024-01-25T15:24:47;32.43;;;29.63;;
7729;SDS011;3908;52.310;7.230;2024-01-25T15:27:34;40.17;;;36.53;;
7729;SDS011;3908;52.310;7.230;2024-01-25T15:30:21;43.03;;;39.80;;
7729;SDS011;3908;52.310;7.230;2024-01-25T15:33:09;36.17;;;32.60;;
7729;SDS011;3908;52.310;7.230;2024-01-25T15:35:56;40.00;;;35.97;;
7729;SDS011;3908;52.310;7.230;2024-01-25T15:38:44;48.00;;;43.47;;
7729;SDS011;3908;52.310;7.230;2024-01-25T15:41:33;39.97;;;36.67;;
7729;SDS011;3908;52.310;7.230;2024-01-25T15:44:21;39.90;;;35.67;;
7729;SDS011;3908;52.310;7.230;2024-01-25T15:54:10;33.23;;;17.47;;
7729;SDS011;3908;52.310;7.230;2024-01-25T15:56:57;28.27;;;21.13;;
7729;SDS011;3908;52.310;7.230;2024-01-25T15:59:45;24.50;;;17.90;;
7729;SDS011;3908;52.310;7.230;2024-01-25T16:02:33;23.60;;;19.57;;
7729;SDS011;3908;52.310;7.230;2024-01-25T16:05:20;25.13;;;19.40;;
7729;SDS011;3908;52.310;7.230;2024-01-25T16:08:08;24.87;;;19.77;;
7729;SDS011;3908;52.310;7.230;2024-01-25T16:10:56;22.10;;;19.83;;
7729;SDS011;3908;52.310;7.230;2024-01-25T16:13:43;24.57;;;20.10;;
7729;SDS011;3908;52.310;7.230;2024-01-25T16:16:30;32.43;;;22.77;;
7729;SDS011;3908;52.310;7.230;2024-01-25T16:19:18;30.93;;;24.77;;
7729;SDS011;3908;52.310;7.230;2024-01-25T16:22:05;38.10;;;23.23;;
7729;SDS011;3908;52.310;7.230;2024-01-25T16:24:53;34.93;;;28.20;;
7729;SDS011;3908;52.310;7.230;2024-01-25T16:27:41;32.37;;;29.13;;
7729;SDS011;3908;52.310;7.230;2024-01-25T16:30:29;33.23;;;30.50;;
7729;SDS011;3908;52.310;7.230;2024-01-25T16:33:16;34.27;;;30.80;;
7729;SDS011;3908;52.310;7.230;2024-01-25T16:36:03;33.83;;;30.40;;
7729;SDS011;3908;52.310;7.230;2024-01-25T16:38:50;35.37;;;32.17;;
7729;SDS011;3908;52.310;7.230;2024-01-25T16:41:37;35.33;;;31.53;;
7729;SDS011;3908;52.310;7.230;2024-01-25T16:44:26;35.63;;;32.27;;
7729;SDS011;3908;52.310;7.230;2024-01-25T16:47:13;36.30;;;33.00;;
7729;SDS011;3908;52.310;7.230;2024-01-25T16:50:01;36.90;;;33.27;;
7729;SDS011;3908;52.310;7.230;2024-01-25T16:52:48;37.63;;;33.53;;
7729;SDS011;3908;52.310;7.230;2024-01-25T16:55:36;34.73;;;30.77;;
7729;SDS011;3908;52.310;7.230;2024-01-25T16:58:23;35.23;;;30.23;;
7729;SDS011;3908;52.310;7.230;2024-01-25T17:01:12;31.87;;;29.03;;
7729;SDS011;3908;52.310;7.230;2024-01-25T17:03:59;36.40;;;31.60;;
7729;SDS011;3908;52.310;7.230;2024-01-25T17:06:47;34.20;;;31.10;;
7729;SDS011;3908;52.310;7.230;2024-01-25T17:09:34;37.13;;;32.93;;
7729;SDS011;3908;52.310;7.230;2024-01-25T17:12:21;33.17;;;30.20;;
7729;SDS011;3908;52.310;7.230;2024-01-25T17:15:08;38.37;;;34.90;;
7729;SDS011;3908;52.310;7.230;2024-01-25T17:17:57;35.30;;;32.60;;
7729;SDS011;3908;52.310;7.230;2024-01-25T17:20:44;39.30;;;35.53;;
7729;SDS011;3908;52.310;7.230;2024-01-25T17:23:31;43.90;;;35.97;;
7729;SDS011;3908;52.310;7.230;2024-01-25T17:26:19;41.00;;;37.53;;
7729;SDS011;3908;52.310;7.230;2024-01-25T17:29:06;41.53;;;37.73;;
7729;SDS011;3908;52.310;7.230;2024-01-25T17:31:53;40.77;;;36.87;;
7729;SDS011;3908;52.310;7.230;2024-01-25T17:34:42;37.30;;;33.00;;
7729;SDS011;3908;52.310;7.230;2024-01-25T17:37:29;40.47;;;36.43;;
7729;SDS011;3908;52.310;7.230;2024-01-25T17:40:19;42.90;;;39.63;;
7729;SDS011;3908;52.310;7.230;2024-01-25T17:43:09;40.60;;;37.10;;
7729;SDS011;3908;52.310;7.230;2024-01-25T17:46:00;48.17;;;40.77;;
7729;SDS011;3908;52.310;7.230;2024-01-25T17:48:48;43.67;;;39.87;;
7729;SDS011;3908;52.310;7.230;2024-01-25T17:51:37;47.67;;;43.33;;
7729;SDS011;3908;52.310;7.230;2024-01-25T17:54:24;44.80;;;40.73;;
7729;SDS011;3908;52.310;7.230;2024-01-25T17:57:11;48.73;;;44.20;;
7729;SDS011;3908;52.310;7.230;2024-01-25T17:59:58;50.63;;;46.60;;
7729;SDS011;3908;52.310;7.230;2024-01-25T18:02:45;50.80;;;46.03;;
7729;SDS011;3908;52.310;7.230;2024-01-25T18:05:32;50.80;;;47.13;;
7729;SDS011;3908;52.310;7.230;2024-01-25T18:08:22;53.00;;;48.47;;
7729;SDS011;3908;52.310;7.230;2024-01-25T18:11:09;50.97;;;46.57;;
7729;SDS011;3908;52.310;7.230;2024-01-25T18:13:56;50.87;;;46.57;;
7729;SDS011;3908;52.310;7.230;2024-01-25T18:16:44;49.90;;;45.43;;
7729;SDS011;3908;52.310;7.230;2024-01-25T18:19:31;47.83;;;43.27;;
7729;SDS011;3908;52.310;7.230;2024-01-25T18:22:20;42.87;;;39.30;;
7729;SDS011;3908;52.310;7.230;2024-01-25T18:25:09;50.50;;;38.57;;
7729;SDS011;3908;52.310;7.230;2024-01-25T18:27:57;40.40;;;36.70;;
7729;SDS011;3908;52.310;7.230;2024-01-25T18:30:45;44.97;;;36.13;;
7729;SDS011;3908;52.310;7.230;2024-01-25T18:33:32;48.13;;;34.90;;
7729;SDS011;3908;52.310;7.230;2024-01-25T18:36:21;38.60;;;34.90;;
7729;SDS011;3908;52.310;7.230;2024-01-25T18:39:08;38.83;;;35.40;;
7729;SDS011;3908;52.310;7.230;2024-01-25T18:41:57;46.20;;;40.83;;
7729;SDS011;3908;52.310;7.230;2024-01-25T18:44:45;53.87;;;42.67;;
7729;SDS011;3908;52.310;7.230;2024-01-25T18:47:32;49.37;;;42.10;;
7729;SDS011;3908;52.310;7.230;2024-01-25T18:50:20;42.97;;;38.67;;
7729;SDS011;3908;52.310;7.230;2024-01-25T18:53:07;45.83;;;41.63;;
7729;SDS011;3908;52.310;7.230;2024-01-25T18:55:54;45.03;;;40.97;;
7729;SDS011;3908;52.310;7.230;2024-01-25T18:58:44;45.30;;;41.10;;
7729;SDS011;3908;52.310;7.230;2024-01-25T19:01:33;49.73;;;41.17;;
7729;SDS011;3908;52.310;7.230;2024-01-25T19:04:20;46.10;;;38.73;;
7729;SDS011;3908;52.310;7.230;2024-01-25T19:07:08;46.97;;;38.43;;
7729;SDS011;3908;52.310;7.230;2024-01-25T19:09:56;49.83;;;38.97;;
7729;SDS011;3908;52.310;7.230;2024-01-25T19:12:43;49.17;;;38.97;;
7729;SDS011;3908;52.310;7.230;2024-01-25T19:15:31;47.33;;;36.63;;
7729;SDS011;3908;52.310;7.230;2024-01-25T19:18:19;43.47;;;37.67;;
7729;SDS011;3908;52.310;7.230;2024-01-25T19:21:11;42.67;;;33.93;;
7729;SDS011;3908;52.310;7.230;2024-01-25T19:23:58;50.67;;;31.43;;
7729;SDS011;3908;52.310;7.230;2024-01-25T19:26:45;42.70;;;36.03;;
7729;SDS011;3908;52.310;7.230;2024-01-25T19:29:32;42.93;;;35.70;;
7729;SDS011;3908;52.310;7.230;2024-01-25T19:32:21;48.83;;;38.87;;
7729;SDS011;3908;52.310;7.230;2024-01-25T19:35:11;44.50;;;34.07;;
7729;SDS011;3908;52.310;7.230;2024-01-25T19:38:00;45.90;;;37.97;;
7729;SDS011;3908;52.310;7.230;2024-01-25T19:40:51;50.80;;;40.93;;
7729;SDS011;3908;52.310;7.230;2024-01-25T19:43:40;46.90;;;42.47;;
7729;SDS011;3908;52.310;7.230;2024-01-25T19:46:28;55.50;;;46.30;;
7729;SDS011;3908;52.310;7.230;2024-01-25T19:49:20;52.63;;;47.00;;
7729;SDS011;3908;52.310;7.230;2024-01-25T19:52:07;55.70;;;46.10;;
7729;SDS011;3908;52.310;7.230;2024-01-25T19:54:54;53.83;;;48.13;;
7729;SDS011;3908;52.310;7.230;2024-01-25T19:57:42;48.33;;;43.23;;
7729;SDS011;3908;52.310;7.230;2024-01-25T20:00:33;49.17;;;44.17;;
7729;SDS011;3908;52.310;7.230;2024-01-25T20:03:21;52.60;;;41.47;;
7729;SDS011;3908;52.310;7.230;2024-01-25T20:06:14;49.17;;;38.67;;
7729;SDS011;3908;52.310;7.230;2024-01-25T20:09:02;44.13;;;36.80;;
7729;SDS011;3908;52.310;7.230;2024-01-25T20:11:50;41.30;;;36.90;;
7729;SDS011;3908;52.310;7.230;2024-01-25T20:14:38;44.70;;;40.13;;
7729;SDS011;3908;52.310;7.230;2024-01-25T20:17:26;43.70;;;37.53;;
7729;SDS011;3908;52.310;7.230;2024-01-25T20:20:14;39.33;;;30.10;;
7729;SDS011;3908;52.310;7.230;2024-01-25T20:23:03;41.20;;;30.00;;
7729;SDS011;3908;52.310;7.230;2024-01-25T20:25:50;41.03;;;28.37;;
7729;SDS011;3908;52.310;7.230;2024-01-25T20:28:41;38.40;;;29.50;;
7729;SDS011;3908;52.310;7.230;2024-01-25T20:31:28;39.67;;;30.70;;
7729;SDS011;3908;52.310;7.230;2024-01-25T20:34:18;39.77;;;30.57;;
7729;SDS011;3908;52.310;7.230;2024-01-25T20:37:07;52.23;;;30.90;;
7729;SDS011;3908;52.310;7.230;2024-01-25T20:39:56;38.13;;;29.23;;
7729;SDS011;3908;52.310;7.230;2024-01-25T20:42:43;48.10;;;26.43;;
7729;SDS011;3908;52.310;7.230;2024-01-25T20:45:33;40.33;;;29.30;;
7729;SDS011;3908;52.310;7.230;2024-01-25T20:48:20;39.47;;;27.67;;